ADDS METAR Data INFO
IDs: Format: Raw Decoded Include TAF

Data at: 1115 UTC 17 Jul 2018

KJGG 171055Z AUTO 00000KT 10SM CLR 26/22 A2995 RMK AO1
KJGG 171035Z AUTO 00000KT 10SM CLR 26/22 A2995 RMK AO1
KJGG 171015Z AUTO 00000KT 10SM CLR 26/22 A2995 RMK AO1
KJGG 170955Z AUTO 00000KT 10SM CLR 26/22 A2995 RMK AO1
KJGG 170935Z AUTO 00000KT 10SM CLR 26/22 A2994 RMK AO1
KJGG 170915Z AUTO 23004KT 10SM CLR 26/22 A2994 RMK AO1
KJGG 170855Z AUTO 00000KT 10SM CLR 26/22 A2995 RMK AO1
KJGG 170835Z AUTO 00000KT 10SM CLR 26/22 A2995 RMK AO1
KJGG 170815Z AUTO 00000KT 10SM CLR 26/22 A2996 RMK AO1
KJGG 170755Z AUTO 00000KT 10SM CLR 27/23 A2996 RMK AO1
KJGG 170735Z AUTO 00000KT 10SM CLR 27/23 A2997 RMK AO1
KJGG 170715Z AUTO 00000KT 10SM CLR 27/23 A2997 RMK AO1
KJGG 170655Z AUTO 00000KT 10SM CLR 27/23 A2997 RMK AO1
KJGG 170635Z AUTO 19005KT 10SM CLR 27/23 A2998 RMK AO1
KJGG 170615Z AUTO 19003KT 10SM CLR 27/23 A2998 RMK AO1
KJGG 170555Z AUTO 00000KT 10SM CLR 27/23 A2998 RMK AO1
KJGG 170535Z AUTO 00000KT 10SM CLR 27/23 A2998 RMK AO1
KJGG 170515Z AUTO 00000KT 10SM CLR 27/23 A2998 RMK AO1
KJGG 170455Z AUTO 00000KT 10SM CLR 27/23 A2998 RMK AO1
KJGG 170435Z AUTO 00000KT 10SM CLR 27/23 A2998 RMK AO1
KJGG 170415Z AUTO 00000KT 10SM CLR 27/23 A2999 RMK AO1
KJGG 170355Z AUTO 17006KT 10SM CLR 27/23 A2999 RMK AO1
KJGG 170335Z AUTO 00000KT 10SM CLR 28/23 A2999 RMK AO1
KJGG 170315Z AUTO 17007KT 10SM CLR 28/23 A2999 RMK AO1
KJGG 170255Z AUTO 18008KT 10SM CLR 28/23 A2999 RMK AO1
KJGG 170235Z AUTO 00000KT 10SM CLR 28/22 A2999 RMK AO1
KJGG 170215Z AUTO 18008KT 150V210 10SM CLR 28/22 A2999 RMK AO1
KJGG 170155Z AUTO 00000KT 10SM CLR 29/22 A2999 RMK AO1
KJGG 170135Z AUTO 00000KT 10SM CLR 29/22 A2998 RMK AO1
KJGG 170115Z AUTO 00000KT 10SM CLR 29/22 A2998 RMK AO1
KJGG 170055Z AUTO 00000KT 10SM CLR 29/22 A2997 RMK AO1
KJGG 170035Z AUTO 00000KT 10SM CLR 30/22 A2997 RMK AO1
KJGG 170015Z AUTO 00000KT 10SM CLR 30/22 A2997 RMK AO1
KJGG 162355Z AUTO 00000KT 10SM CLR 31/22 A2997 RMK AO1
KJGG 162335Z AUTO 18004KT 10SM CLR 31/21 A2997 RMK AO1
KJGG 162315Z AUTO 20005KT 10SM CLR 32/21 A2997 RMK AO1
KJGG 162255Z AUTO 19004KT 10SM CLR 32/21 A2997 RMK AO1
KJGG 162235Z AUTO 18007KT 10SM CLR 33/21 A2997 RMK AO1
KJGG 162215Z AUTO 20007KT 10SM CLR 33/21 A2997 RMK AO1
KJGG 162155Z AUTO 18008KT 10SM CLR 34/21 A2997 RMK AO1
KJGG 162135Z AUTO 18010KT 10SM CLR 33/20 A2997 RMK AO1
KJGG 162115Z AUTO 19006KT 10SM CLR 34/21 A2997 RMK AO1
KJGG 162055Z AUTO 18009G14KT 10SM CLR 34/19 A2997 RMK AO1
KJGG 162035Z AUTO 18008G14KT 10SM CLR 34/20 A2997 RMK AO1
KJGG 162015Z AUTO 17008G15KT 150V220 10SM CLR 35/20 A2997 RMK AO1
KJGG 161955Z AUTO 18009G14KT 150V210 10SM CLR 36/20 A2997 RMK AO1
KJGG 161935Z AUTO 17009KT 10SM CLR 35/20 A2998 RMK AO1
KJGG 161915Z AUTO 20006G09KT 10SM CLR 35/19 A2999 RMK AO1
KJGG 161855Z AUTO 18008KT 160V220 10SM CLR 35/21 A3000 RMK AO1
KJGG 161835Z AUTO 14008KT 10SM CLR 35/23 A3001 RMK AO1
KJGG 161815Z AUTO 00000KT 10SM CLR 34/22 A3001 RMK AO1
KJGG 161755Z AUTO 00000KT 10SM CLR 34/22 A3002 RMK AO1
KJGG 161735Z AUTO 00000KT 10SM CLR 33/22 A3002 RMK AO1
KJGG 161715Z AUTO 00000KT 10SM CLR 32/22 A3003 RMK AO1
KJGG 161655Z AUTO 00000KT 10SM CLR 31/21 A3003 RMK AO1
KJGG 161635Z AUTO 00000KT 10SM CLR 30/21 A3004 RMK AO1
KJGG 161615Z AUTO 00000KT 10SM CLR 29/21 A3004 RMK AO1
KJGG 161555Z AUTO 00000KT 10SM CLR 29/21 A3004 RMK AO1
KJGG 161535Z AUTO 00000KT 10SM CLR 28/21 A3005 RMK AO1
KJGG 161515Z AUTO 00000KT 10SM CLR 28/21 A3005 RMK AO1
KJGG 161455Z AUTO 00000KT 10SM CLR 27/20 A3004 RMK AO1
KJGG 161435Z AUTO 00000KT 10SM CLR 27/20 A3004 RMK AO1
KJGG 161415Z AUTO 00000KT 10SM CLR 27/19 A3005 RMK AO1
KJGG 161355Z AUTO 00000KT 10SM CLR 27/19 A3004 RMK AO1
KJGG 161335Z AUTO 00000KT 10SM CLR 27/19 A3004 RMK AO1
KJGG 161315Z AUTO 18003KT 10SM CLR 26/19 A3004 RMK AO1
KJGG 161255Z AUTO 00000KT 10SM CLR 26/19 A3005 RMK AO1
KJGG 161235Z AUTO 00000KT 10SM CLR 26/19 A3005 RMK AO1
KJGG 161215Z AUTO 00000KT 10SM CLR 26/19 A3004 RMK AO1
KJGG 161155Z AUTO 00000KT 10SM CLR 26/19 A3004 RMK AO1
KJGG 161135Z AUTO 00000KT 10SM CLR 26/19 A3004 RMK AO1
KJGG 161115Z AUTO 00000KT 10SM CLR 26/19 A3004 RMK AO1
KJGG 161055Z AUTO 00000KT 10SM CLR 26/19 A3004 RMK AO1
KJGG 161035Z AUTO 00000KT 10SM CLR 26/19 A3004 RMK AO1
KJGG 161015Z AUTO 00000KT 10SM CLR 26/19 A3004 RMK AO1
KJGG 160955Z AUTO 00000KT 10SM CLR 26/19 A3003 RMK AO1
KJGG 160935Z AUTO 00000KT 10SM CLR 26/19 A3003 RMK AO1
KJGG 160915Z AUTO 00000KT 10SM CLR 26/19 A3003 RMK AO1
KJGG 160855Z AUTO 00000KT 10SM CLR 26/19 A3003 RMK AO1
KJGG 160835Z AUTO 00000KT 10SM CLR 26/19 A3003 RMK AO1
KJGG 160815Z AUTO 00000KT 10SM CLR 26/19 A3003 RMK AO1
KJGG 160755Z AUTO 00000KT 10SM CLR 26/19 A3003 RMK AO1
KJGG 160735Z AUTO 00000KT 10SM CLR 26/19 A3003 RMK AO1
KJGG 160715Z AUTO 00000KT 10SM CLR 26/19 A3003 RMK AO1
KJGG 160655Z AUTO 00000KT 10SM CLR 26/19 A3003 RMK AO1
KJGG 160635Z AUTO 00000KT 10SM CLR 26/19 A3003 RMK AO1
KJGG 160615Z AUTO 00000KT 10SM CLR 26/20 A3003 RMK AO1
KJGG 160555Z AUTO 00000KT 10SM CLR 26/20 A3004 RMK AO1
KJGG 160535Z AUTO 20003KT 10SM CLR 26/20 A3005 RMK AO1
KJGG 160515Z AUTO 19006G14KT 10SM CLR 26/21 A3005 RMK AO1
KJGG 160455Z AUTO 19005KT 10SM CLR 27/20 A3005 RMK AO1
KJGG 160435Z AUTO 00000KT 10SM CLR 27/19 A3005 RMK AO1
KJGG 160415Z AUTO 19004KT 10SM CLR 27/19 A3005 RMK AO1
KJGG 160355Z AUTO 18004KT 10SM CLR 27/19 A3005 RMK AO1
KJGG 160335Z AUTO 18004KT 10SM CLR 28/19 A3004 RMK AO1
KJGG 160315Z AUTO 00000KT 10SM CLR 28/19 A3004 RMK AO1
KJGG 160255Z AUTO 00000KT 10SM CLR 28/19 A3004 RMK AO1
KJGG 160235Z AUTO 00000KT 10SM CLR 28/19 A3003 RMK AO1
KJGG 160215Z AUTO 00000KT 10SM CLR 28/19 A3003 RMK AO1
KJGG 160155Z AUTO 00000KT 10SM CLR 29/19 A3003 RMK AO1
KJGG 160135Z AUTO 00000KT 10SM CLR 29/20 A3002 RMK AO1
KJGG 160115Z AUTO 00000KT 10SM CLR 29/20 A3001 RMK AO1
KJGG 160055Z AUTO 00000KT 10SM CLR 29/19 A3001 RMK AO1
KJGG 160035Z AUTO 00000KT 10SM CLR 29/19 A3001 RMK AO1
KJGG 160015Z AUTO 00000KT 10SM CLR 30/19 A3000 RMK AO1
KJGG 152355Z AUTO 00000KT 10SM CLR 30/19 A3000 RMK AO1
KJGG 152335Z AUTO 00000KT 10SM CLR 31/20 A3000 RMK AO1